sensor_id;sensor_type;location;lat;lon;timestamp;P1;durP1;ratioP1;P2;durP2;ratioP2
49514;SDS011;35415;47.870;16.058;2022-11-20T00:00:52;30.85;;;15.52;;
49514;SDS011;35415;47.870;16.058;2022-11-20T00:03:20;32.55;;;15.60;;
49514;SDS011;35415;47.870;16.058;2022-11-20T00:05:49;34.25;;;16.15;;
49514;SDS011;35415;47.870;16.058;2022-11-20T00:08:16;38.25;;;16.95;;
49514;SDS011;35415;47.870;16.058;2022-11-20T00:10:44;41.03;;;16.50;;
49514;SDS011;35415;47.870;16.058;2022-11-20T00:13:14;38.20;;;16.75;;
49514;SDS011;35415;47.870;16.058;2022-11-20T00:15:43;35.22;;;15.38;;
49514;SDS011;35415;47.870;16.058;2022-11-20T00:18:10;36.75;;;17.25;;
49514;SDS011;35415;47.870;16.058;2022-11-20T00:20:38;40.53;;;16.55;;
49514;SDS011;35415;47.870;16.058;2022-11-20T00:23:05;40.65;;;15.88;;
49514;SDS011;35415;47.870;16.058;2022-11-20T00:25:33;38.72;;;16.77;;
49514;SDS011;35415;47.870;16.058;2022-11-20T00:28:01;37.17;;;17.33;;
49514;SDS011;35415;47.870;16.058;2022-11-20T00:30:28;40.95;;;16.63;;
49514;SDS011;35415;47.870;16.058;2022-11-20T00:32:57;40.65;;;17.17;;
49514;SDS011;35415;47.870;16.058;2022-11-20T00:35:25;38.83;;;16.08;;
49514;SDS011;35415;47.870;16.058;2022-11-20T00:37:54;37.22;;;15.35;;
49514;SDS011;35415;47.870;16.058;2022-11-20T00:40:21;37.00;;;15.80;;
49514;SDS011;35415;47.870;16.058;2022-11-20T00:42:48;32.60;;;16.02;;
49514;SDS011;35415;47.870;16.058;2022-11-20T00:45:16;38.00;;;15.77;;
49514;SDS011;35415;47.870;16.058;2022-11-20T00:47:43;32.50;;;14.82;;
49514;SDS011;35415;47.870;16.058;2022-11-20T00:50:12;38.13;;;16.85;;
49514;SDS011;35415;47.870;16.058;2022-11-20T00:52:41;34.35;;;15.45;;
49514;SDS011;35415;47.870;16.058;2022-11-20T00:55:08;34.60;;;16.05;;
49514;SDS011;35415;47.870;16.058;2022-11-20T00:57:36;37.55;;;16.88;;
49514;SDS011;35415;47.870;16.058;2022-11-20T01:00:05;37.95;;;15.90;;
49514;SDS011;35415;47.870;16.058;2022-11-20T01:02:33;37.80;;;15.52;;
49514;SDS011;35415;47.870;16.058;2022-11-20T01:05:03;32.92;;;15.75;;
49514;SDS011;35415;47.870;16.058;2022-11-20T01:07:33;39.60;;;15.82;;
49514;SDS011;35415;47.870;16.058;2022-11-20T01:10:01;37.03;;;15.90;;
49514;SDS011;35415;47.870;16.058;2022-11-20T01:12:28;36.78;;;15.80;;
49514;SDS011;35415;47.870;16.058;2022-11-20T01:14:56;33.35;;;15.73;;
49514;SDS011;35415;47.870;16.058;2022-11-20T01:17:23;36.55;;;15.48;;
49514;SDS011;35415;47.870;16.058;2022-11-20T01:19:50;38.25;;;15.45;;
49514;SDS011;35415;47.870;16.058;2022-11-20T01:22:17;37.72;;;16.73;;
49514;SDS011;35415;47.870;16.058;2022-11-20T01:24:46;42.55;;;16.88;;
49514;SDS011;35415;47.870;16.058;2022-11-20T01:27:14;39.22;;;16.85;;
49514;SDS011;35415;47.870;16.058;2022-11-20T01:29:41;39.38;;;16.38;;
49514;SDS011;35415;47.870;16.058;2022-11-20T01:32:08;34.53;;;15.32;;
49514;SDS011;35415;47.870;16.058;2022-11-20T01:34:36;43.42;;;17.67;;
49514;SDS011;35415;47.870;16.058;2022-11-20T01:37:03;37.28;;;15.98;;
49514;SDS011;35415;47.870;16.058;2022-11-20T01:39:30;39.13;;;15.82;;
49514;SDS011;35415;47.870;16.058;2022-11-20T01:41:59;37.33;;;16.05;;
49514;SDS011;35415;47.870;16.058;2022-11-20T01:44:51;41.72;;;16.10;;
49514;SDS011;35415;47.870;16.058;2022-11-20T01:47:22;37.30;;;15.25;;
49514;SDS011;35415;47.870;16.058;2022-11-20T01:49:53;36.40;;;15.23;;
49514;SDS011;35415;47.870;16.058;2022-11-20T01:52:24;43.33;;;18.13;;
49514;SDS011;35415;47.870;16.058;2022-11-20T01:54:58;37.83;;;16.30;;
49514;SDS011;35415;47.870;16.058;2022-11-20T01:57:32;37.78;;;16.33;;
49514;SDS011;35415;47.870;16.058;2022-11-20T02:00:05;37.22;;;16.77;;
49514;SDS011;35415;47.870;16.058;2022-11-20T02:02:34;39.72;;;17.10;;
49514;SDS011;35415;47.870;16.058;2022-11-20T02:05:09;41.72;;;17.45;;
49514;SDS011;35415;47.870;16.058;2022-11-20T02:07:43;35.78;;;17.15;;
49514;SDS011;35415;47.870;16.058;2022-11-20T02:10:13;38.40;;;16.42;;
49514;SDS011;35415;47.870;16.058;2022-11-20T02:12:43;39.38;;;16.02;;
49514;SDS011;35415;47.870;16.058;2022-11-20T02:15:28;36.20;;;15.90;;
49514;SDS011;35415;47.870;16.058;2022-11-20T02:17:55;39.72;;;15.80;;
49514;SDS011;35415;47.870;16.058;2022-11-20T02:20:23;42.22;;;17.10;;
49514;SDS011;35415;47.870;16.058;2022-11-20T02:22:54;44.60;;;17.23;;
49514;SDS011;35415;47.870;16.058;2022-11-20T02:25:28;41.00;;;16.70;;
49514;SDS011;35415;47.870;16.058;2022-11-20T02:27:57;44.13;;;18.52;;
49514;SDS011;35415;47.870;16.058;2022-11-20T02:30:24;40.97;;;16.92;;
49514;SDS011;35415;47.870;16.058;2022-11-20T02:32:52;43.40;;;17.55;;
49514;SDS011;35415;47.870;16.058;2022-11-20T02:38:07;36.17;;;15.95;;
49514;SDS011;35415;47.870;16.058;2022-11-20T02:40:36;40.67;;;16.73;;
49514;SDS011;35415;47.870;16.058;2022-11-20T02:43:03;40.83;;;16.67;;
49514;SDS011;35415;47.870;16.058;2022-11-20T02:45:30;38.13;;;16.50;;
49514;SDS011;35415;47.870;16.058;2022-11-20T02:47:58;36.20;;;16.30;;
49514;SDS011;35415;47.870;16.058;2022-11-20T02:50:26;33.00;;;15.02;;
49514;SDS011;35415;47.870;16.058;2022-11-20T02:52:53;38.25;;;15.23;;
49514;SDS011;35415;47.870;16.058;2022-11-20T02:55:20;33.70;;;16.02;;
49514;SDS011;35415;47.870;16.058;2022-11-20T02:57:50;34.40;;;15.68;;
49514;SDS011;35415;47.870;16.058;2022-11-20T03:00:20;33.13;;;15.45;;
49514;SDS011;35415;47.870;16.058;2022-11-20T03:02:47;38.80;;;15.95;;
49514;SDS011;35415;47.870;16.058;2022-11-20T03:05:15;39.58;;;16.83;;
49514;SDS011;35415;47.870;16.058;2022-11-20T03:07:45;36.92;;;16.15;;
49514;SDS011;35415;47.870;16.058;2022-11-20T03:10:12;39.05;;;16.73;;
49514;SDS011;35415;47.870;16.058;2022-11-20T03:12:40;36.33;;;15.60;;
49514;SDS011;35415;47.870;16.058;2022-11-20T03:15:10;39.10;;;16.58;;
49514;SDS011;35415;47.870;16.058;2022-11-20T03:17:37;39.13;;;16.13;;
49514;SDS011;35415;47.870;16.058;2022-11-20T03:20:08;36.45;;;15.27;;
49514;SDS011;35415;47.870;16.058;2022-11-20T03:22:35;35.70;;;16.05;;
49514;SDS011;35415;47.870;16.058;2022-11-20T03:25:04;36.90;;;16.30;;
49514;SDS011;35415;47.870;16.058;2022-11-20T03:27:35;38.17;;;16.00;;
49514;SDS011;35415;47.870;16.058;2022-11-20T03:30:03;41.33;;;15.77;;
49514;SDS011;35415;47.870;16.058;2022-11-20T03:32:35;34.60;;;15.52;;
49514;SDS011;35415;47.870;16.058;2022-11-20T03:35:02;36.53;;;15.23;;
49514;SDS011;35415;47.870;16.058;2022-11-20T03:37:29;35.80;;;15.13;;
49514;SDS011;35415;47.870;16.058;2022-11-20T03:39:57;40.45;;;15.07;;
49514;SDS011;35415;47.870;16.058;2022-11-20T03:42:24;24.77;;;12.07;;
49514;SDS011;35415;47.870;16.058;2022-11-20T03:45:09;35.28;;;14.32;;
49514;SDS011;35415;47.870;16.058;2022-11-20T03:47:42;28.70;;;14.00;;
49514;SDS011;35415;47.870;16.058;2022-11-20T03:50:11;30.30;;;12.73;;
49514;SDS011;35415;47.870;16.058;2022-11-20T03:52:41;33.05;;;13.35;;
49514;SDS011;35415;47.870;16.058;2022-11-20T03:55:08;33.38;;;15.07;;
49514;SDS011;35415;47.870;16.058;2022-11-20T03:57:36;25.75;;;11.02;;
49514;SDS011;35415;47.870;16.058;2022-11-20T04:00:03;28.48;;;13.02;;
49514;SDS011;35415;47.870;16.058;2022-11-20T04:02:31;27.42;;;12.13;;
49514;SDS011;35415;47.870;16.058;2022-11-20T04:05:01;29.65;;;12.13;;
49514;SDS011;35415;47.870;16.058;2022-11-20T04:07:28;23.38;;;12.25;;
49514;SDS011;35415;47.870;16.058;2022-11-20T04:09:55;23.65;;;11.52;;
49514;SDS011;35415;47.870;16.058;2022-11-20T04:12:22;28.20;;;13.45;;
49514;SDS011;35415;47.870;16.058;2022-11-20T04:14:49;27.40;;;12.30;;
49514;SDS011;35415;47.870;16.058;2022-11-20T04:17:17;30.20;;;12.90;;
49514;SDS011;35415;47.870;16.058;2022-11-20T04:19:45;28.83;;;12.27;;
49514;SDS011;35415;47.870;16.058;2022-11-20T04:22:17;30.90;;;12.88;;
49514;SDS011;35415;47.870;16.058;2022-11-20T04:24:46;33.85;;;13.50;;
49514;SDS011;35415;47.870;16.058;2022-11-20T04:27:14;35.60;;;15.60;;
49514;SDS011;35415;47.870;16.058;2022-11-20T04:29:41;30.13;;;13.25;;
49514;SDS011;35415;47.870;16.058;2022-11-20T04:32:09;32.58;;;13.50;;
49514;SDS011;35415;47.870;16.058;2022-11-20T04:34:36;34.50;;;15.43;;
49514;SDS011;35415;47.870;16.058;2022-11-20T04:37:04;35.50;;;14.52;;
49514;SDS011;35415;47.870;16.058;2022-11-20T04:39:35;29.58;;;13.40;;
49514;SDS011;35415;47.870;16.058;2022-11-20T04:42:03;33.92;;;14.25;;
49514;SDS011;35415;47.870;16.058;2022-11-20T04:44:43;29.67;;;13.63;;
49514;SDS011;35415;47.870;16.058;2022-11-20T04:47:11;36.03;;;14.02;;
49514;SDS011;35415;47.870;16.058;2022-11-20T04:49:39;30.63;;;14.50;;
49514;SDS011;35415;47.870;16.058;2022-11-20T04:52:08;34.97;;;14.13;;
49514;SDS011;35415;47.870;16.058;2022-11-20T04:54:37;34.60;;;15.15;;
49514;SDS011;35415;47.870;16.058;2022-11-20T04:57:04;31.58;;;14.90;;
49514;SDS011;35415;47.870;16.058;2022-11-20T04:59:31;32.58;;;15.07;;
49514;SDS011;35415;47.870;16.058;2022-11-20T05:01:58;28.20;;;13.60;;
49514;SDS011;35415;47.870;16.058;2022-11-20T05:04:25;31.33;;;14.40;;
49514;SDS011;35415;47.870;16.058;2022-11-20T05:06:53;32.80;;;14.50;;
49514;SDS011;35415;47.870;16.058;2022-11-20T05:09:23;27.13;;;12.18;;
49514;SDS011;35415;47.870;16.058;2022-11-20T05:11:52;27.73;;;11.95;;
49514;SDS011;35415;47.870;16.058;2022-11-20T05:14:19;23.75;;;11.50;;
49514;SDS011;35415;47.870;16.058;2022-11-20T05:16:49;22.85;;;10.88;;
49514;SDS011;35415;47.870;16.058;2022-11-20T05:19:16;20.58;;;10.48;;
49514;SDS011;35415;47.870;16.058;2022-11-20T05:21:44;27.98;;;13.35;;
49514;SDS011;35415;47.870;16.058;2022-11-20T05:24:11;33.47;;;14.52;;
49514;SDS011;35415;47.870;16.058;2022-11-20T05:26:38;34.97;;;15.18;;
49514;SDS011;35415;47.870;16.058;2022-11-20T05:29:09;32.95;;;14.80;;
49514;SDS011;35415;47.870;16.058;2022-11-20T05:31:38;32.28;;;14.32;;
49514;SDS011;35415;47.870;16.058;2022-11-20T05:34:06;28.80;;;14.32;;
49514;SDS011;35415;47.870;16.058;2022-11-20T05:36:34;31.60;;;14.18;;
49514;SDS011;35415;47.870;16.058;2022-11-20T05:39:01;33.85;;;15.25;;
49514;SDS011;35415;47.870;16.058;2022-11-20T05:41:29;30.08;;;14.07;;
49514;SDS011;35415;47.870;16.058;2022-11-20T05:43:57;32.97;;;15.48;;
49514;SDS011;35415;47.870;16.058;2022-11-20T05:46:27;29.92;;;14.18;;
49514;SDS011;35415;47.870;16.058;2022-11-20T05:48:55;31.67;;;14.63;;
49514;SDS011;35415;47.870;16.058;2022-11-20T05:51:24;31.77;;;14.32;;
49514;SDS011;35415;47.870;16.058;2022-11-20T05:53:52;31.15;;;13.35;;
49514;SDS011;35415;47.870;16.058;2022-11-20T05:56:20;29.30;;;13.88;;
49514;SDS011;35415;47.870;16.058;2022-11-20T05:58:49;29.58;;;13.77;;
49514;SDS011;35415;47.870;16.058;2022-11-20T06:01:19;35.13;;;14.95;;
49514;SDS011;35415;47.870;16.058;2022-11-20T06:03:50;28.55;;;13.27;;
49514;SDS011;35415;47.870;16.058;2022-11-20T06:06:19;27.30;;;12.75;;
49514;SDS011;35415;47.870;16.058;2022-11-20T06:08:46;36.25;;;13.75;;
49514;SDS011;35415;47.870;16.058;2022-11-20T06:11:17;29.73;;;14.15;;
49514;SDS011;35415;47.870;16.058;2022-11-20T06:13:44;30.95;;;14.32;;
49514;SDS011;35415;47.870;16.058;2022-11-20T06:16:12;32.72;;;14.93;;
49514;SDS011;35415;47.870;16.058;2022-11-20T06:18:41;34.30;;;14.40;;
49514;SDS011;35415;47.870;16.058;2022-11-20T06:21:15;30.65;;;14.50;;
49514;SDS011;35415;47.870;16.058;2022-11-20T06:23:44;29.60;;;13.23;;
49514;SDS011;35415;47.870;16.058;2022-11-20T06:26:12;30.77;;;13.50;;
49514;SDS011;35415;47.870;16.058;2022-11-20T06:28:41;32.30;;;13.95;;
49514;SDS011;35415;47.870;16.058;2022-11-20T06:31:10;29.48;;;13.90;;
49514;SDS011;35415;47.870;16.058;2022-11-20T06:33:39;31.13;;;14.07;;
49514;SDS011;35415;47.870;16.058;2022-11-20T06:36:06;29.90;;;14.23;;
49514;SDS011;35415;47.870;16.058;2022-11-20T06:38:35;30.05;;;14.02;;
49514;SDS011;35415;47.870;16.058;2022-11-20T06:41:03;26.65;;;12.82;;
49514;SDS011;35415;47.870;16.058;2022-11-20T06:43:31;29.73;;;12.77;;
49514;SDS011;35415;47.870;16.058;2022-11-20T06:45:58;28.17;;;11.93;;
49514;SDS011;35415;47.870;16.058;2022-11-20T06:48:26;28.42;;;12.85;;
49514;SDS011;35415;47.870;16.058;2022-11-20T06:50:54;27.42;;;13.57;;
49514;SDS011;35415;47.870;16.058;2022-11-20T06:53:22;30.50;;;15.35;;
49514;SDS011;35415;47.870;16.058;2022-11-20T06:55:51;30.63;;;13.60;;
49514;SDS011;35415;47.870;16.058;2022-11-20T06:58:22;35.72;;;16.25;;
49514;SDS011;35415;47.870;16.058;2022-11-20T07:00:52;34.50;;;15.25;;
49514;SDS011;35415;47.870;16.058;2022-11-20T07:03:19;36.00;;;16.17;;
49514;SDS011;35415;47.870;16.058;2022-11-20T07:05:47;31.00;;;14.45;;
49514;SDS011;35415;47.870;16.058;2022-11-20T07:08:14;34.63;;;15.30;;
49514;SDS011;35415;47.870;16.058;2022-11-20T07:10:41;29.02;;;15.15;;
49514;SDS011;35415;47.870;16.058;2022-11-20T07:13:10;29.65;;;14.50;;
49514;SDS011;35415;47.870;16.058;2022-11-20T07:15:38;33.25;;;15.43;;
49514;SDS011;35415;47.870;16.058;2022-11-20T07:18:05;31.65;;;13.05;;
49514;SDS011;35415;47.870;16.058;2022-11-20T07:20:35;33.20;;;14.82;;
49514;SDS011;35415;47.870;16.058;2022-11-20T07:23:02;32.22;;;15.10;;
49514;SDS011;35415;47.870;16.058;2022-11-20T07:25:29;29.73;;;15.63;;
49514;SDS011;35415;47.870;16.058;2022-11-20T07:27:56;32.85;;;14.80;;
49514;SDS011;35415;47.870;16.058;2022-11-20T07:30:26;33.28;;;14.95;;
49514;SDS011;35415;47.870;16.058;2022-11-20T07:32:54;32.03;;;14.55;;
49514;SDS011;35415;47.870;16.058;2022-11-20T07:35:22;33.30;;;15.23;;
49514;SDS011;35415;47.870;16.058;2022-11-20T07:37:50;33.08;;;15.07;;
49514;SDS011;35415;47.870;16.058;2022-11-20T07:40:18;31.73;;;14.70;;
49514;SDS011;35415;47.870;16.058;2022-11-20T07:42:48;30.55;;;14.52;;
49514;SDS011;35415;47.870;16.058;2022-11-20T07:45:16;30.75;;;15.30;;
49514;SDS011;35415;47.870;16.058;2022-11-20T07:47:45;32.63;;;15.43;;
49514;SDS011;35415;47.870;16.058;2022-11-20T07:50:13;33.40;;;14.45;;
49514;SDS011;35415;47.870;16.058;2022-11-20T07:52:42;37.72;;;16.75;;
49514;SDS011;35415;47.870;16.058;2022-11-20T07:55:10;30.27;;;14.55;;
49514;SDS011;35415;47.870;16.058;2022-11-20T07:57:38;32.95;;;14.98;;
49514;SDS011;35415;47.870;16.058;2022-11-20T08:00:06;32.97;;;15.32;;
49514;SDS011;35415;47.870;16.058;2022-11-20T08:02:36;36.05;;;16.20;;
49514;SDS011;35415;47.870;16.058;2022-11-20T08:05:06;32.88;;;15.25;;
49514;SDS011;35415;47.870;16.058;2022-11-20T08:07:35;32.40;;;14.57;;
49514;SDS011;35415;47.870;16.058;2022-11-20T08:10:05;33.15;;;14.73;;
49514;SDS011;35415;47.870;16.058;2022-11-20T08:12:34;29.75;;;13.15;;
49514;SDS011;35415;47.870;16.058;2022-11-20T08:15:27;30.58;;;15.45;;
49514;SDS011;35415;47.870;16.058;2022-11-20T08:17:58;35.17;;;15.30;;
49514;SDS011;35415;47.870;16.058;2022-11-20T08:20:28;35.35;;;15.85;;
49514;SDS011;35415;47.870;16.058;2022-11-20T08:22:59;28.77;;;13.90;;
49514;SDS011;35415;47.870;16.058;2022-11-20T08:25:27;30.30;;;15.05;;
49514;SDS011;35415;47.870;16.058;2022-11-20T08:27:57;31.55;;;15.35;;
49514;SDS011;35415;47.870;16.058;2022-11-20T08:30:24;37.45;;;16.52;;
49514;SDS011;35415;47.870;16.058;2022-11-20T08:32:53;31.30;;;14.63;;
49514;SDS011;35415;47.870;16.058;2022-11-20T08:35:20;32.28;;;14.07;;
49514;SDS011;35415;47.870;16.058;2022-11-20T08:37:49;30.17;;;14.57;;
49514;SDS011;35415;47.870;16.058;2022-11-20T08:40:19;34.53;;;16.17;;
49514;SDS011;35415;47.870;16.058;2022-11-20T08:42:46;34.28;;;16.00;;
49514;SDS011;35415;47.870;16.058;2022-11-20T08:45:16;32.00;;;14.88;;
49514;SDS011;35415;47.870;16.058;2022-11-20T08:47:46;43.40;;;18.40;;
49514;SDS011;35415;47.870;16.058;2022-11-20T08:50:14;43.58;;;21.00;;
49514;SDS011;35415;47.870;16.058;2022-11-20T08:52:42;33.58;;;15.90;;
49514;SDS011;35415;47.870;16.058;2022-11-20T08:55:11;33.45;;;15.73;;
49514;SDS011;35415;47.870;16.058;2022-11-20T08:57:39;33.40;;;16.83;;
49514;SDS011;35415;47.870;16.058;2022-11-20T09:00:06;34.05;;;15.80;;
49514;SDS011;35415;47.870;16.058;2022-11-20T09:02:36;43.88;;;19.90;;
49514;SDS011;35415;47.870;16.058;2022-11-20T09:05:04;39.67;;;16.38;;
49514;SDS011;35415;47.870;16.058;2022-11-20T09:07:31;37.28;;;17.23;;
49514;SDS011;35415;47.870;16.058;2022-11-20T09:09:58;35.53;;;17.40;;
49514;SDS011;35415;47.870;16.058;2022-11-20T09:12:27;36.40;;;17.27;;
49514;SDS011;35415;47.870;16.058;2022-11-20T09:14:54;31.38;;;15.32;;
49514;SDS011;35415;47.870;16.058;2022-11-20T09:17:21;34.58;;;16.42;;
49514;SDS011;35415;47.870;16.058;2022-11-20T09:19:52;29.80;;;15.25;;
49514;SDS011;35415;47.870;16.058;2022-11-20T09:22:19;34.75;;;16.38;;
49514;SDS011;35415;47.870;16.058;2022-11-20T09:24:49;31.08;;;16.70;;
49514;SDS011;35415;47.870;16.058;2022-11-20T09:27:16;33.22;;;16.08;;
49514;SDS011;35415;47.870;16.058;2022-11-20T09:29:49;32.35;;;15.80;;
49514;SDS011;35415;47.870;16.058;2022-11-20T09:32:16;35.70;;;16.30;;
49514;SDS011;35415;47.870;16.058;2022-11-20T09:34:43;41.00;;;18.30;;
49514;SDS011;35415;47.870;16.058;2022-11-20T09:37:10;36.45;;;17.98;;
49514;SDS011;35415;47.870;16.058;2022-11-20T09:39:37;35.78;;;15.52;;
49514;SDS011;35415;47.870;16.058;2022-11-20T09:42:09;31.00;;;15.43;;
49514;SDS011;35415;47.870;16.058;2022-11-20T09:44:51;33.88;;;16.30;;
49514;SDS011;35415;47.870;16.058;2022-11-20T09:47:31;35.38;;;17.20;;
49514;SDS011;35415;47.870;16.058;2022-11-20T09:50:12;37.78;;;18.23;;
49514;SDS011;35415;47.870;16.058;2022-11-20T09:52:53;35.83;;;16.17;;
49514;SDS011;35415;47.870;16.058;2022-11-20T09:55:31;42.25;;;19.42;;
49514;SDS011;35415;47.870;16.058;2022-11-20T09:58:00;46.10;;;21.23;;
49514;SDS011;35415;47.870;16.058;2022-11-20T10:00:28;37.05;;;18.08;;
49514;SDS011;35415;47.870;16.058;2022-11-20T10:02:57;37.33;;;17.33;;
49514;SDS011;35415;47.870;16.058;2022-11-20T10:08:07;37.55;;;16.95;;
49514;SDS011;35415;47.870;16.058;2022-11-20T10:10:42;35.55;;;17.25;;
49514;SDS011;35415;47.870;16.058;2022-11-20T10:13:15;33.13;;;17.20;;
49514;SDS011;35415;47.870;16.058;2022-11-20T10:15:56;36.03;;;18.05;;
49514;SDS011;35415;47.870;16.058;2022-11-20T10:18:38;40.33;;;17.90;;
49514;SDS011;35415;47.870;16.058;2022-11-20T10:21:17;36.58;;;17.73;;
49514;SDS011;35415;47.870;16.058;2022-11-20T10:23:59;40.55;;;19.00;;
49514;SDS011;35415;47.870;16.058;2022-11-20T10:26:51;37.22;;;18.80;;
49514;SDS011;35415;47.870;16.058;2022-11-20T10:29:32;44.15;;;21.60;;
49514;SDS011;35415;47.870;16.058;2022-11-20T10:32:03;45.17;;;21.10;;
49514;SDS011;35415;47.870;16.058;2022-11-20T10:34:42;47.03;;;22.42;;
49514;SDS011;35415;47.870;16.058;2022-11-20T10:37:16;46.20;;;20.95;;
49514;SDS011;35415;47.870;16.058;2022-11-20T10:39:47;45.03;;;20.38;;
49514;SDS011;35415;47.870;16.058;2022-11-20T10:42:24;43.10;;;21.45;;
49514;SDS011;35415;47.870;16.058;2022-11-20T10:45:00;40.88;;;21.17;;
49514;SDS011;35415;47.870;16.058;2022-11-20T10:47:40;40.70;;;20.40;;
49514;SDS011;35415;47.870;16.058;2022-11-20T10:50:09;41.05;;;20.60;;
49514;SDS011;35415;47.870;16.058;2022-11-20T10:52:42;43.70;;;20.05;;
49514;SDS011;35415;47.870;16.058;2022-11-20T10:55:24;50.30;;;23.13;;
49514;SDS011;35415;47.870;16.058;2022-11-20T10:58:00;41.10;;;21.60;;
49514;SDS011;35415;47.870;16.058;2022-11-20T11:00:36;41.28;;;19.83;;
49514;SDS011;35415;47.870;16.058;2022-11-20T11:03:07;45.60;;;21.83;;
49514;SDS011;35415;47.870;16.058;2022-11-20T11:05:49;44.00;;;20.85;;
49514;SDS011;35415;47.870;16.058;2022-11-20T11:08:21;47.10;;;22.35;;
49514;SDS011;35415;47.870;16.058;2022-11-20T11:10:51;39.80;;;18.27;;
49514;SDS011;35415;47.870;16.058;2022-11-20T11:13:20;33.30;;;17.80;;
49514;SDS011;35415;47.870;16.058;2022-11-20T11:15:48;41.35;;;18.95;;
49514;SDS011;35415;47.870;16.058;2022-11-20T11:18:25;38.60;;;19.00;;
49514;SDS011;35415;47.870;16.058;2022-11-20T11:20:55;39.05;;;17.50;;
49514;SDS011;35415;47.870;16.058;2022-11-20T11:23:29;33.92;;;16.23;;
49514;SDS011;35415;47.870;16.058;2022-11-20T11:25:59;36.72;;;17.85;;
49514;SDS011;35415;47.870;16.058;2022-11-20T11:28:28;39.83;;;17.77;;
49514;SDS011;35415;47.870;16.058;2022-11-20T11:30:55;36.20;;;16.88;;
49514;SDS011;35415;47.870;16.058;2022-11-20T11:33:24;32.92;;;16.70;;
49514;SDS011;35415;47.870;16.058;2022-11-20T11:35:53;36.53;;;16.58;;
49514;SDS011;35415;47.870;16.058;2022-11-20T11:38:27;31.42;;;16.42;;
49514;SDS011;35415;47.870;16.058;2022-11-20T11:41:01;32.97;;;15.52;;
49514;SDS011;35415;47.870;16.058;2022-11-20T11:43:31;34.60;;;17.33;;
49514;SDS011;35415;47.870;16.058;2022-11-20T11:46:31;31.13;;;16.77;;
49514;SDS011;35415;47.870;16.058;2022-11-20T11:49:11;31.40;;;16.73;;
49514;SDS011;35415;47.870;16.058;2022-11-20T11:51:46;32.65;;;18.02;;
49514;SDS011;35415;47.870;16.058;2022-11-20T11:54:24;32.60;;;16.70;;
49514;SDS011;35415;47.870;16.058;2022-11-20T11:56:58;28.77;;;13.90;;
49514;SDS011;35415;47.870;16.058;2022-11-20T11:59:36;28.60;;;13.90;;
49514;SDS011;35415;47.870;16.058;2022-11-20T12:02:15;26.58;;;12.65;;
49514;SDS011;35415;47.870;16.058;2022-11-20T12:04:56;30.23;;;14.10;;
49514;SDS011;35415;47.870;16.058;2022-11-20T12:07:29;30.02;;;14.07;;
49514;SDS011;35415;47.870;16.058;2022-11-20T12:10:07;24.48;;;13.13;;
49514;SDS011;35415;47.870;16.058;2022-11-20T12:12:43;23.33;;;12.75;;
49514;SDS011;35415;47.870;16.058;2022-11-20T12:15:18;26.80;;;14.35;;
49514;SDS011;35415;47.870;16.058;2022-11-20T12:17:54;27.00;;;14.02;;
49514;SDS011;35415;47.870;16.058;2022-11-20T12:20:24;27.40;;;15.30;;
49514;SDS011;35415;47.870;16.058;2022-11-20T12:22:56;30.02;;;14.35;;
49514;SDS011;35415;47.870;16.058;2022-11-20T12:25:29;26.02;;;12.63;;
49514;SDS011;35415;47.870;16.058;2022-11-20T12:28:10;25.63;;;12.52;;
49514;SDS011;35415;47.870;16.058;2022-11-20T12:30:48;24.17;;;13.40;;
49514;SDS011;35415;47.870;16.058;2022-11-20T12:33:40;17.52;;;9.88;;
49514;SDS011;35415;47.870;16.058;2022-11-20T12:36:21;18.75;;;10.48;;
49514;SDS011;35415;47.870;16.058;2022-11-20T12:39:05;19.67;;;10.35;;
49514;SDS011;35415;47.870;16.058;2022-11-20T12:41:47;16.10;;;8.65;;
49514;SDS011;35415;47.870;16.058;2022-11-20T12:50:39;25.60;;;13.05;;
49514;SDS011;35415;47.870;16.058;2022-11-20T12:53:20;23.15;;;10.90;;
49514;SDS011;35415;47.870;16.058;2022-11-20T12:55:54;19.38;;;11.75;;
49514;SDS011;35415;47.870;16.058;2022-11-20T12:58:26;13.88;;;8.70;;
49514;SDS011;35415;47.870;16.058;2022-11-20T13:01:03;16.38;;;9.50;;
49514;SDS011;35415;47.870;16.058;2022-11-20T13:04:02;26.65;;;14.57;;
49514;SDS011;35415;47.870;16.058;2022-11-20T13:06:35;22.65;;;13.35;;
49514;SDS011;35415;47.870;16.058;2022-11-20T13:09:06;21.13;;;12.43;;
49514;SDS011;35415;47.870;16.058;2022-11-20T13:11:40;27.52;;;17.52;;
49514;SDS011;35415;47.870;16.058;2022-11-20T13:14:14;38.22;;;20.75;;
49514;SDS011;35415;47.870;16.058;2022-11-20T13:16:52;25.65;;;17.05;;
49514;SDS011;35415;47.870;16.058;2022-11-20T13:19:23;20.38;;;10.27;;
49514;SDS011;35415;47.870;16.058;2022-11-20T13:21:52;28.58;;;15.40;;
49514;SDS011;35415;47.870;16.058;2022-11-20T13:24:25;23.80;;;13.05;;
49514;SDS011;35415;47.870;16.058;2022-11-20T13:27:05;19.42;;;11.55;;
49514;SDS011;35415;47.870;16.058;2022-11-20T13:32:26;18.38;;;11.45;;
49514;SDS011;35415;47.870;16.058;2022-11-20T13:34:57;15.98;;;10.32;;
49514;SDS011;35415;47.870;16.058;2022-11-20T13:37:27;9.25;;;6.10;;
49514;SDS011;35415;47.870;16.058;2022-11-20T13:40:19;7.70;;;5.55;;
49514;SDS011;35415;47.870;16.058;2022-11-20T13:42:54;3.65;;;2.45;;
49514;SDS011;35415;47.870;16.058;2022-11-20T13:45:28;6.13;;;3.33;;
49514;SDS011;35415;47.870;16.058;2022-11-20T13:47:57;9.10;;;6.00;;
49514;SDS011;35415;47.870;16.058;2022-11-20T13:50:38;8.05;;;4.32;;
49514;SDS011;35415;47.870;16.058;2022-11-20T13:53:14;9.82;;;5.72;;
49514;SDS011;35415;47.870;16.058;2022-11-20T13:55:57;19.67;;;11.80;;
49514;SDS011;35415;47.870;16.058;2022-11-20T13:58:34;12.77;;;8.18;;
49514;SDS011;35415;47.870;16.058;2022-11-20T14:01:15;12.52;;;7.28;;
49514;SDS011;35415;47.870;16.058;2022-11-20T14:03:45;9.40;;;5.20;;
49514;SDS011;35415;47.870;16.058;2022-11-20T14:06:14;11.88;;;5.55;;
49514;SDS011;35415;47.870;16.058;2022-11-20T14:08:48;4.22;;;3.00;;
49514;SDS011;35415;47.870;16.058;2022-11-20T14:11:18;6.88;;;4.07;;
49514;SDS011;35415;47.870;16.058;2022-11-20T14:13:53;7.70;;;4.63;;
49514;SDS011;35415;47.870;16.058;2022-11-20T14:16:22;4.38;;;3.40;;
49514;SDS011;35415;47.870;16.058;2022-11-20T14:18:49;5.95;;;4.50;;
49514;SDS011;35415;47.870;16.058;2022-11-20T14:21:23;7.65;;;5.20;;
49514;SDS011;35415;47.870;16.058;2022-11-20T14:24:02;7.18;;;5.53;;
49514;SDS011;35415;47.870;16.058;2022-11-20T14:26:31;10.35;;;6.97;;
49514;SDS011;35415;47.870;16.058;2022-11-20T14:29:00;8.32;;;5.38;;
49514;SDS011;35415;47.870;16.058;2022-11-20T14:31:27;10.95;;;6.65;;
49514;SDS011;35415;47.870;16.058;2022-11-20T14:33:55;9.07;;;6.20;;
49514;SDS011;35415;47.870;16.058;2022-11-20T14:36:24;9.80;;;6.20;;
49514;SDS011;35415;47.870;16.058;2022-11-20T14:38:54;10.15;;;6.72;;
49514;SDS011;35415;47.870;16.058;2022-11-20T14:41:21;11.48;;;7.03;;
49514;SDS011;35415;47.870;16.058;2022-11-20T14:43:53;11.60;;;7.15;;
49514;SDS011;35415;47.870;16.058;2022-11-20T14:46:23;12.65;;;7.50;;